CheckWX is a tool to help pilots better visualize weather data.  It is not intended as a substitute for an official pre-flight weather briefing.

21:54:50 UTC

SCQP METAR
La Araucanía Airport
Temuco, Chile
Current

55 mins ago

SCQP 112100Z 28007KT 250V310 9999 SCT017 BKN032 09/08 Q1017
Observed
Jul-11 @ 21:00 UTC
Wind
  • 280° at 7 KTS
Visibility
10,000+ meters
Flight Rules
VFR
Cloud Levels
  • Scattered at 1,700' AGL
  • Broken at 3,200' AGL
Temperature
C / 48°F
Dewpoint
C / 46°F
Humidity
94%
Altimeter
30.03" Hg
Pressure
1016.92 hPa
Previous

2 hours ago

SCQP 112000Z 28007KT 9999 -SHRA SCT014 OVC030 09/08 Q1017
Observed
Jul-11 @ 20:00 UTC
Wind
  • 280° at 7 KTS
Visibility
10,000+ meters
Flight Rules
MVFR
Conditions
Light Showers, Rain
Cloud Levels
  • Scattered at 1,400' AGL
  • Overcast at 3,000' AGL
Temperature
C / 48°F
Dewpoint
C / 46°F
Humidity
94%
Altimeter
30.03" Hg
Pressure
1016.92 hPa
Previous

3 hours ago

SCQP 111900Z 25004KT 210V300 9000 -SHRA SCT009 OVC030 08/08 Q1017
Observed
Jul-11 @ 19:00 UTC
Wind
  • 250° at 4 KTS
Visibility
8996 meters
Flight Rules
MVFR
Conditions
Light Showers, Rain
Cloud Levels
  • Scattered at 900' AGL
  • Overcast at 3,000' AGL
Temperature
C / 46°F
Dewpoint
C / 46°F
Humidity
100%
Altimeter
30.03" Hg
Pressure
1016.92 hPa